Time;durP1;ratioP1;P1;durP2;ratioP2;P2;SDS_P1;SDS_P2;PMS_P1;PMS_P2;Temp;Humidity;BMP_temperature;BMP_pressure;BME280_temperature;BME280_humidity;BME280_pressure;Samples;Min_cycle;Max_cycle;Signal;HPM_P1;HPM_P2
2022/07/19 00:02:21;;;;;;;7.70;4.33;;;;;;;15.40;75.78;101398.34;1722301;83;20989;-89
2022/07/19 00:04:48;;;;;;;7.40;3.98;;;;;;;15.37;75.71;101397.23;1722706;83;20883;-88
2022/07/19 00:07:15;;;;;;;7.85;4.47;;;;;;;15.37;75.82;101405.16;1724503;83;20957;-88
2022/07/19 00:09:42;;;;;;;8.40;4.33;;;;;;;15.37;75.82;101405.16;1722661;83;20926;-88
2022/07/19 00:12:13;;;;;;;9.85;3.92;;;;;;;15.34;75.88;101396.48;1722330;83;21016;-89
2022/07/19 00:14:40;;;;;;;6.60;5.17;;;;;;;15.33;75.17;101408.00;1722735;83;20977;-89
2022/07/19 00:17:08;;;;;;;8.18;4.33;;;;;;;15.31;75.34;101401.97;1723599;83;20918;-88
2022/07/19 00:19:37;;;;;;;5.10;4.55;;;;;;;15.28;75.28;101403.50;1723068;83;20945;-88
2022/07/19 00:22:04;;;;;;;9.78;5.03;;;;;;;15.25;75.33;101398.89;1722595;83;20979;-88
2022/07/19 00:24:32;;;;;;;6.67;4.03;;;;;;;15.20;75.42;101400.52;1722264;83;21259;-90
2022/07/19 00:26:59;;;;;;;7.22;4.50;;;;;;;15.12;75.77;101400.20;1722255;83;21380;-89
2022/07/19 00:29:25;;;;;;;5.28;4.20;;;;;;;15.12;75.77;101400.20;1722147;83;21470;-89
2022/07/19 00:31:53;;;;;;;6.40;4.28;;;;;;;15.06;75.86;101401.45;1721958;83;21013;-90
2022/07/19 00:34:19;;;;;;;5.35;3.77;;;;;;;15.01;76.21;101402.72;1722087;83;20914;-90
2022/07/19 00:36:46;;;;;;;9.05;3.98;;;;;;;15.01;76.21;101402.72;1722345;83;21404;-90
2022/07/19 00:39:14;;;;;;;6.80;3.87;;;;;;;14.97;76.45;101401.22;1722026;83;20992;-90
2022/07/19 00:41:42;;;;;;;4.97;4.00;;;;;;;14.93;76.52;101400.08;1722020;83;20995;-89
2022/07/19 00:44:10;;;;;;;5.10;3.95;;;;;;;14.85;76.99;101394.93;1722084;83;21376;-90
2022/07/19 00:46:38;;;;;;;4.47;4.08;;;;;;;14.85;76.99;101394.93;1710707;83;20925;-90
2022/07/19 00:49:05;;;;;;;6.28;4.15;;;;;;;14.84;77.19;101395.41;1688751;85;21235;-89
2022/07/19 00:51:40;;;;;;;8.85;3.92;;;;;;;14.81;77.33;101400.91;1688872;85;20988;-90
2022/07/19 00:54:08;;;;;;;5.65;4.78;;;;;;;14.79;77.29;101403.27;1689846;84;20909;-89
2022/07/19 00:56:35;;;;;;;4.55;3.42;;;;;;;14.75;77.35;101403.09;1689257;85;21509;-89
2022/07/19 00:59:03;;;;;;;5.25;3.72;;;;;;;14.70;77.43;101404.23;1688831;85;20897;-90
2022/07/19 01:01:31;;;;;;;5.05;3.95;;;;;;;14.68;77.45;101402.65;1688879;85;21239;-89
2022/07/19 01:03:58;;;;;;;7.40;3.90;;;;;;;14.62;77.40;101404.36;1688837;85;21390;-88
2022/07/19 01:06:25;;;;;;;7.12;3.90;;;;;;;14.59;77.52;101402.77;1688792;83;20881;-90
2022/07/19 01:08:52;;;;;;;4.70;4.20;;;;;;;14.59;77.52;101402.77;1690753;85;21493;-87
2022/07/19 01:11:18;;;;;;;5.50;3.62;;;;;;;14.58;77.65;101401.53;1691091;80;20988;-89
2022/07/19 01:13:46;;;;;;;5.37;3.67;;;;;;;14.56;77.88;101406.06;1690030;79;21137;-90
2022/07/19 01:16:13;;;;;;;6.30;3.50;;;;;;;14.53;77.92;101407.08;1688882;85;20980;-87
2022/07/19 01:18:40;;;;;;;9.73;3.83;;;;;;;14.52;78.15;101409.36;1691117;79;20943;-90
2022/07/19 01:21:07;;;;;;;9.33;3.60;;;;;;;14.52;78.15;101409.36;1691884;81;20941;-89
2022/07/19 01:23:35;;;;;;;7.10;3.80;;;;;;;14.52;78.26;101410.68;1691461;79;20900;-89
2022/07/19 01:26:02;;;;;;;3.70;3.20;;;;;;;14.52;78.26;101412.00;1691376;79;21187;-88
2022/07/19 01:28:28;;;;;;;3.80;3.25;;;;;;;14.54;78.32;101413.20;1691183;79;20885;-89
2022/07/19 01:30:55;;;;;;;4.10;3.33;;;;;;;14.53;78.07;101415.48;1691089;79;20965;-89
2022/07/19 01:33:22;;;;;;;4.70;3.85;;;;;;;14.53;78.07;101415.48;1691037;80;20914;-89
2022/07/19 01:35:49;;;;;;;3.20;2.87;;;;;;;14.52;78.02;101419.92;1691180;79;20873;-89
2022/07/19 01:38:16;;;;;;;3.05;2.77;;;;;;;14.50;78.14;101415.20;1691215;79;21099;-89
2022/07/19 01:40:43;;;;;;;3.98;2.52;;;;;;;14.49;77.74;101415.66;1691522;79;21036;-89
2022/07/19 01:43:10;;;;;;;5.40;3.33;;;;;;;14.49;77.74;101415.66;1690996;79;20936;-89
2022/07/19 01:45:38;;;;;;;3.60;2.70;;;;;;;14.49;78.07;101414.81;1691018;79;20905;-88
2022/07/19 01:48:07;;;;;;;3.85;2.80;;;;;;;14.49;78.02;101421.41;1699232;79;21213;-89
2022/07/19 01:50:34;;;;;;;2.77;2.27;;;;;;;14.50;78.12;101421.80;1701357;79;21159;-89
2022/07/19 01:53:00;;;;;;;3.52;2.60;;;;;;;14.50;77.99;101422.64;1701227;79;20912;-89
2022/07/19 01:55:27;;;;;;;3.87;2.40;;;;;;;14.49;77.79;101428.01;1701286;82;20881;-90
2022/07/19 01:57:55;;;;;;;2.50;2.30;;;;;;;14.47;77.71;101423.30;1700388;84;20960;-88
2022/07/19 02:00:21;;;;;;;4.08;2.45;;;;;;;14.46;77.78;101429.05;1700035;84;20924;-89
2022/07/19 02:02:48;;;;;;;3.37;2.30;;;;;;;14.47;77.91;101429.89;1699913;84;21235;-89
2022/07/19 02:05:15;;;;;;;2.42;2.22;;;;;;;14.47;77.69;101430.77;1699342;84;20877;-89
2022/07/19 02:07:42;;;;;;;5.80;2.50;;;;;;;14.47;77.90;101430.77;1699571;84;20885;-89
2022/07/19 02:10:09;;;;;;;3.77;2.67;;;;;;;14.48;77.95;101428.97;1699747;84;21458;-90
2022/07/19 02:12:37;;;;;;;3.00;2.25;;;;;;;14.48;77.95;101428.97;1699674;84;20880;-89
2022/07/19 02:15:05;;;;;;;3.58;2.17;;;;;;;14.48;77.69;101433.77;1699768;84;22120;-89
2022/07/19 02:17:33;;;;;;;3.87;2.60;;;;;;;14.47;77.38;101434.73;1700007;84;21063;-89
2022/07/19 02:20:01;;;;;;;3.87;2.35;;;;;;;14.45;77.27;101430.02;1701061;84;20908;-89
2022/07/19 02:22:29;;;;;;;2.65;2.17;;;;;;;14.45;77.18;101441.89;1699785;84;20952;-90
2022/07/19 02:24:56;;;;;;;7.67;3.40;;;;;;;14.45;77.06;101442.34;1699490;84;21331;-90
2022/07/19 02:27:23;;;;;;;9.88;3.77;;;;;;;14.43;77.04;101446.41;1699523;84;21770;-91
2022/07/19 02:29:50;;;;;;;4.00;2.30;;;;;;;14.43;77.02;101445.58;1699209;84;20912;-89
2022/07/19 02:32:17;;;;;;;3.08;2.10;;;;;;;14.40;77.01;101442.63;1699475;83;20967;-89
2022/07/19 02:34:44;;;;;;;3.33;2.00;;;;;;;14.38;77.13;101442.36;1699058;84;21453;-90
2022/07/19 02:37:11;;;;;;;2.80;2.45;;;;;;;14.39;77.19;101446.23;1698959;84;20912;-90
2022/07/19 02:39:38;;;;;;;8.40;3.02;;;;;;;14.38;77.15;101448.48;1699048;84;21960;-88
2022/07/19 02:42:07;;;;;;;3.08;1.90;;;;;;;14.39;77.06;101453.30;1698969;84;20940;-89
2022/07/19 02:44:34;;;;;;;12.18;5.45;;;;;;;14.37;77.05;101456.03;1699122;84;20963;-88
2022/07/19 02:47:03;;;;;;;11.45;3.42;;;;;;;14.36;77.16;101456.11;1705259;83;20981;-87
2022/07/19 02:49:30;;;;;;;8.65;3.08;;;;;;;14.36;77.16;101456.11;1723488;83;20925;-90
2022/07/19 02:51:57;;;;;;;13.25;3.00;;;;;;;14.36;77.30;101456.98;1722269;83;21235;-90
2022/07/19 02:54:24;;;;;;;4.37;2.50;;;;;;;14.37;77.30;101466.59;1722313;83;21028;-91
2022/07/19 02:56:51;;;;;;;4.35;2.90;;;;;;;14.38;77.28;101470.06;1695999;83;20882;-89
2022/07/19 02:59:17;;;;;;;4.03;2.95;;;;;;;14.39;77.40;101462.06;1722354;83;21435;-87
2022/07/19 03:01:44;;;;;;;3.02;2.15;;;;;;;14.41;77.42;101470.73;1722242;83;21336;-88
2022/07/19 03:04:11;;;;;;;2.25;2.08;;;;;;;14.43;77.42;101470.17;1722356;83;21110;-91
2022/07/19 03:06:38;;;;;;;3.77;1.85;;;;;;;14.44;77.33;101474.48;1722243;83;20918;-89
2022/07/19 03:09:07;;;;;;;2.27;2.02;;;;;;;14.48;77.35;101472.52;1695997;83;20961;-90
2022/07/19 03:11:36;;;;;;;3.77;1.80;;;;;;;14.49;77.36;101475.04;1722090;83;20937;-91
2022/07/19 03:14:03;;;;;;;3.37;2.20;;;;;;;14.51;77.47;101482.39;1722402;83;20882;-89
2022/07/19 03:16:30;;;;;;;4.55;2.08;;;;;;;14.55;77.43;101483.57;1723153;82;21331;-87
2022/07/19 03:18:58;;;;;;;2.47;2.05;;;;;;;14.58;77.50;101488.64;1722595;83;20910;-89
2022/07/19 03:21:25;;;;;;;5.72;2.33;;;;;;;14.62;77.57;101486.19;1722206;83;20997;-90
2022/07/19 03:23:52;;;;;;;3.02;1.95;;;;;;;14.65;77.62;101486.86;1722284;83;20981;-91
2022/07/19 03:26:19;;;;;;;6.87;2.37;;;;;;;14.68;77.72;101487.13;1722161;83;20965;-91
2022/07/19 03:28:46;;;;;;;2.55;2.20;;;;;;;14.73;77.91;101491.64;1722464;83;21427;-91
2022/07/19 03:31:13;;;;;;;2.47;1.67;;;;;;;14.77;78.00;101489.18;1722355;83;20992;-90
2022/07/19 03:33:40;;;;;;;3.33;2.17;;;;;;;14.84;78.10;101492.28;1722312;83;20962;-91
2022/07/19 03:36:07;;;;;;;2.87;1.87;;;;;;;14.89;78.13;101491.02;1672787;83;20918;-90
2022/07/19 03:38:34;;;;;;;3.83;1.80;;;;;;;14.95;77.76;101492.44;1722172;83;21055;-91
2022/07/19 03:41:02;;;;;;;4.40;2.62;;;;;;;15.03;77.48;101494.56;1722547;83;21158;-88
2022/07/19 03:43:29;;;;;;;3.62;1.25;;;;;;;15.17;76.90;101493.69;1724217;83;20879;-87
2022/07/19 03:45:56;;;;;;;3.70;1.50;;;;;;;15.17;76.90;101493.69;1723879;83;21009;-89
2022/07/19 03:48:24;;;;;;;5.22;1.72;;;;;;;15.24;76.78;101498.46;1701218;83;21059;-90
2022/07/19 03:50:51;;;;;;;2.02;1.40;;;;;;;15.31;76.52;101501.55;1689123;85;20901;-92
2022/07/19 03:53:19;;;;;;;2.12;1.62;;;;;;;15.40;76.43;101498.30;1688808;85;21265;-91
2022/07/19 03:55:46;;;;;;;2.60;1.50;;;;;;;15.47;76.27;101494.31;1688790;85;20968;-91
2022/07/19 03:58:13;;;;;;;4.50;2.00;;;;;;;15.55;76.02;101497.76;1689578;85;21010;-89
2022/07/19 04:00:40;;;;;;;4.35;1.85;;;;;;;15.63;75.95;101499.88;1689604;85;21537;-88
2022/07/19 04:03:08;;;;;;;4.67;1.92;;;;;;;15.77;75.98;101499.84;1689798;85;20992;-90
2022/07/19 04:05:34;;;;;;;3.05;1.40;;;;;;;15.77;75.98;101499.84;1690311;83;21205;-90
2022/07/19 04:08:02;;;;;;;2.02;1.47;;;;;;;15.86;75.51;101506.30;1691721;79;21105;-92
2022/07/19 04:10:30;;;;;;;2.77;1.35;;;;;;;15.94;75.46;101506.16;1691453;79;20957;-93
2022/07/19 04:12:56;;;;;;;1.00;1.00;;;;;;;16.03;75.18;101506.00;1689153;85;20952;-92
2022/07/19 04:15:24;;;;;;;2.92;1.42;;;;;;;16.12;75.02;101507.17;1688884;85;20991;-91
2022/07/19 04:17:51;;;;;;;1.98;1.75;;;;;;;16.33;74.36;101509.62;1688774;85;21402;-91
2022/07/19 04:20:19;;;;;;;5.00;1.50;;;;;;;16.33;74.36;101509.62;1688795;85;20941;-91
2022/07/19 04:22:45;;;;;;;2.35;1.47;;;;;;;16.49;74.17;101509.88;1688921;85;21027;-90
2022/07/19 04:25:13;;;;;;;3.30;1.75;;;;;;;16.66;73.88;101509.52;1688749;85;20929;-91
2022/07/19 04:27:40;;;;;;;4.20;1.50;;;;;;;16.98;73.56;101511.22;1688908;85;20937;-90
2022/07/19 04:30:08;;;;;;;4.30;1.75;;;;;;;17.52;72.92;101513.00;1688965;85;21238;-91
2022/07/19 04:32:35;;;;;;;6.40;1.27;;;;;;;18.19;71.51;101513.69;1688760;83;20936;-90
2022/07/19 04:35:02;;;;;;;3.90;1.10;;;;;;;18.95;69.24;101514.73;1689062;85;20873;-92
2022/07/19 04:37:29;;;;;;;1.00;0.90;;;;;;;19.73;66.96;101507.93;1689939;85;20957;-89
2022/07/19 04:39:56;;;;;;;1.50;1.00;;;;;;;20.46;64.46;101507.39;1689977;85;20971;-91
2022/07/19 04:42:23;;;;;;;2.75;1.10;;;;;;;21.12;61.84;101510.85;1689373;85;21130;-91
2022/07/19 04:44:50;;;;;;;1.42;1.17;;;;;;;21.67;59.11;101504.98;1689045;85;20953;-92
2022/07/19 04:47:17;;;;;;;4.78;1.57;;;;;;;22.15;56.76;101508.88;1688996;83;20960;-92
2022/07/19 04:49:45;;;;;;;4.97;1.22;;;;;;;22.58;54.60;101505.77;1689171;85;21019;-91
2022/07/19 04:52:12;;;;;;;4.70;0.85;;;;;;;22.90;53.31;101505.28;1689201;85;20902;-90
2022/07/19 04:54:39;;;;;;;3.55;1.45;;;;;;;23.23;52.57;101505.64;1690794;85;21800;-90
2022/07/19 04:57:06;;;;;;;2.08;1.15;;;;;;;23.56;51.43;101505.42;1691181;79;20945;-90
2022/07/19 04:59:32;;;;;;;1.60;1.05;;;;;;;23.97;50.93;101504.42;1691091;79;20909;-89
2022/07/19 05:02:00;;;;;;;1.82;0.98;;;;;;;24.39;49.60;101507.14;1688802;84;20889;-92
2022/07/19 05:04:28;;;;;;;2.10;1.00;;;;;;;24.78;48.66;101511.16;1688978;83;20924;-93
2022/07/19 05:06:56;;;;;;;1.32;0.80;;;;;;;25.09;47.80;101507.87;1689065;85;21220;-92
2022/07/19 05:09:26;;;;;;;3.17;1.35;;;;;;;25.44;46.93;101507.59;1688977;85;21017;-92
2022/07/19 05:11:53;;;;;;;2.72;0.98;;;;;;;25.84;46.14;101513.10;1689120;85;20940;-92
2022/07/19 05:14:20;;;;;;;3.50;0.85;;;;;;;26.22;45.12;101509.34;1689445;83;20921;-92
2022/07/19 05:16:49;;;;;;;1.35;0.60;;;;;;;26.50;44.37;101505.68;1688942;85;20920;-92
2022/07/19 05:19:17;;;;;;;2.25;1.17;;;;;;;26.85;43.66;101505.69;1688925;85;21138;-93
2022/07/19 05:21:44;;;;;;;1.52;0.82;;;;;;;27.11;42.62;101501.83;1689164;85;21490;-92
2022/07/19 05:24:13;;;;;;;1.50;0.57;;;;;;;27.31;42.13;101497.34;1688766;85;20948;-92
2022/07/19 05:26:40;;;;;;;2.52;0.82;;;;;;;27.54;41.57;101495.44;1688826;83;21004;-91
2022/07/19 05:29:07;;;;;;;5.20;1.15;;;;;;;27.77;41.13;101497.24;1689110;83;20938;-91
2022/07/19 05:31:34;;;;;;;1.15;0.98;;;;;;;28.06;40.96;101492.44;1688996;85;21138;-91
2022/07/19 05:34:01;;;;;;;3.62;1.05;;;;;;;28.37;40.38;101498.11;1690155;85;20984;-91
2022/07/19 05:36:28;;;;;;;5.47;0.85;;;;;;;28.69;39.44;101488.78;1690693;85;20905;-87
2022/07/19 05:38:55;;;;;;;1.42;0.50;;;;;;;28.89;38.88;101491.18;1689589;85;20988;-92
2022/07/19 05:41:23;;;;;;;2.60;1.15;;;;;;;29.04;38.73;101491.13;1689103;85;20984;-92
2022/07/19 05:43:51;;;;;;;2.90;0.60;;;;;;;29.13;38.25;101482.42;1689009;85;21956;-93
2022/07/19 05:46:18;;;;;;;3.80;1.20;;;;;;;29.27;37.75;101481.49;1688870;84;21411;-92
2022/07/19 05:48:46;;;;;;;2.62;0.70;;;;;;;29.49;37.43;101477.42;1689013;83;20924;-92
2022/07/19 05:51:13;;;;;;;2.20;0.60;;;;;;;29.73;37.06;101475.64;1689193;85;21378;-92
2022/07/19 05:53:40;;;;;;;2.83;0.50;;;;;;;29.88;36.50;101482.30;1689186;85;20877;-92
2022/07/19 05:56:07;;;;;;;3.92;0.85;;;;;;;30.07;36.24;101475.31;1689164;84;22102;-93
2022/07/19 05:58:34;;;;;;;1.45;0.93;;;;;;;30.33;35.89;101488.17;1688718;85;21051;-91
2022/07/19 06:02:49;;;;;;;0.78;0.60;;;;;;;30.71;35.20;101476.02;1885293;75;22887;-92
2022/07/19 06:05:20;;;;;;;0.55;0.53;;;;;;;30.76;34.94;101473.52;1861516;76;20890;-93
2022/07/19 06:07:49;;;;;;;0.93;0.62;;;;;;;30.85;34.95;101474.17;1861976;77;21107;-92
2022/07/19 06:10:16;;;;;;;1.32;0.50;;;;;;;31.02;34.27;101480.07;1861527;76;20864;-92
2022/07/19 06:12:44;;;;;;;2.87;0.30;;;;;;;31.19;34.10;101475.89;1861139;77;20910;-93
2022/07/19 06:15:12;;;;;;;0.68;0.53;;;;;;;31.43;33.56;101476.34;1861646;77;20903;-90
2022/07/19 06:17:40;;;;;;;5.15;1.17;;;;;;;31.72;32.87;101482.66;1862069;77;21029;-92
2022/07/19 06:20:08;;;;;;;1.37;0.55;;;;;;;31.89;32.55;101470.02;1861775;76;21228;-89
2022/07/19 06:22:36;;;;;;;0.65;0.45;;;;;;;32.08;32.12;101475.92;1861641;76;20894;-92
2022/07/19 06:25:05;;;;;;;1.27;0.47;;;;;;;32.25;31.74;101470.86;1862996;76;20919;-92
2022/07/19 06:27:32;;;;;;;1.32;0.40;;;;;;;32.40;31.84;101471.42;1862787;77;20915;-91
2022/07/19 06:30:00;;;;;;;0.93;0.57;;;;;;;32.47;31.34;101471.92;1863281;77;20883;-90
2022/07/19 06:32:27;;;;;;;1.07;0.40;;;;;;;32.55;31.48;101470.31;1864120;76;21211;-92
2022/07/19 06:34:54;;;;;;;0.28;0.17;;;;;;;32.68;30.99;101467.52;1863802;77;20871;-92
2022/07/19 06:37:21;;;;;;;3.98;0.65;;;;;;;32.81;30.78;101463.90;1863633;77;20946;-93
2022/07/19 06:39:49;;;;;;;0.68;0.30;;;;;;;32.96;30.58;101460.87;1861532;77;20919;-92
2022/07/19 06:42:16;;;;;;;4.03;1.22;;;;;;;33.16;30.19;101460.22;1861442;76;20875;-92
2022/07/19 06:44:48;;;;;;;0.57;0.30;;;;;;;33.46;29.61;101459.53;1861238;77;21190;-93
2022/07/19 06:47:15;;;;;;;0.55;0.30;;;;;;;33.71;29.78;101460.07;1859145;76;20871;-92
2022/07/19 06:49:41;;;;;;;0.60;0.30;;;;;;;33.79;29.50;101457.86;1861625;76;20962;-92
2022/07/19 06:52:09;;;;;;;2.62;0.70;;;;;;;33.87;28.75;101460.83;1861570;77;20876;-93
2022/07/19 06:54:36;;;;;;;4.22;0.47;;;;;;;33.95;28.71;101454.23;1861580;76;20864;-93
2022/07/19 06:57:03;;;;;;;1.47;0.20;;;;;;;34.13;28.24;101450.19;1861585;76;21255;-91
2022/07/19 06:59:31;;;;;;;2.17;0.93;;;;;;;34.27;28.01;101456.28;1861298;77;21058;-92
2022/07/19 07:01:58;;;;;;;0.53;0.15;;;;;;;34.31;27.69;101453.91;1861106;75;20851;-91
2022/07/19 07:04:25;;;;;;;0.25;0.25;;;;;;;34.43;27.15;101454.81;1861385;77;20879;-93
2022/07/19 07:06:52;;;;;;;0.90;0.25;;;;;;;34.55;26.43;101459.79;1861446;77;20918;-92
2022/07/19 07:09:21;;;;;;;6.17;1.30;;;;;;;34.62;26.40;101455.09;1861339;77;21266;-92
2022/07/19 07:11:48;;;;;;;0.60;0.35;;;;;;;34.67;26.13;101450.31;1861332;77;20836;-92
2022/07/19 07:14:15;;;;;;;0.42;0.10;;;;;;;34.80;26.26;101457.47;1860871;77;21325;-92
2022/07/19 07:16:43;;;;;;;2.20;0.65;;;;;;;34.92;26.38;101455.58;1861096;77;20993;-94
2022/07/19 07:19:10;;;;;;;0.23;0.13;;;;;;;34.92;26.06;101458.84;1861150;77;20907;-91
2022/07/19 07:21:37;;;;;;;1.25;0.30;;;;;;;34.74;25.69;101457.03;1863507;77;21133;-92
2022/07/19 07:24:05;;;;;;;0.62;0.23;;;;;;;34.76;25.77;101457.09;1863468;77;20879;-92
2022/07/19 07:26:33;;;;;;;0.50;0.17;;;;;;;34.95;25.71;101459.73;1862984;77;20931;-93
2022/07/19 07:29:00;;;;;;;1.82;0.30;;;;;;;35.20;25.62;101457.67;1862788;77;20982;-92
2022/07/19 07:31:27;;;;;;;0.75;0.75;;;;;;;35.39;25.59;101457.02;1862636;77;21349;-93
2022/07/19 07:33:54;;;;;;;0.45;0.30;;;;;;;35.56;25.35;101453.58;1861892;76;20872;-93
2022/07/19 07:36:21;;;;;;;1.98;0.20;;;;;;;35.66;24.51;101448.37;1861614;77;20880;-93
2022/07/19 07:38:48;;;;;;;3.02;1.95;;;;;;;35.74;24.76;101454.01;1861246;76;20939;-93
2022/07/19 07:41:16;;;;;;;0.23;0.20;;;;;;;35.69;24.45;101449.27;1861056;77;21333;-94
2022/07/19 07:43:45;;;;;;;0.45;0.45;;;;;;;35.53;24.35;101447.22;1831048;77;20919;-91
2022/07/19 07:46:12;;;;;;;1.85;0.30;;;;;;;35.48;24.69;101453.39;1861395;77;21298;-92
2022/07/19 07:48:40;;;;;;;0.60;0.10;;;;;;;35.51;24.58;101451.57;1860961;76;20891;-92
2022/07/19 07:51:07;;;;;;;1.80;1.40;;;;;;;35.59;24.07;101445.73;1860928;77;20844;-90
2022/07/19 07:53:34;;;;;;;2.15;0.20;;;;;;;35.67;23.78;101445.41;1861453;77;21453;-92
2022/07/19 07:56:01;;;;;;;0.37;0.10;;;;;;;35.52;23.03;101443.67;1861450;76;20990;-92
2022/07/19 07:58:28;;;;;;;2.05;0.30;;;;;;;35.40;23.73;101439.59;1861146;77;21205;-93
2022/07/19 08:00:57;;;;;;;1.10;0.20;;;;;;;35.53;23.67;101441.77;1860900;77;20867;-93
2022/07/19 08:03:24;;;;;;;0.65;0.10;;;;;;;35.73;23.22;101442.27;1829082;77;21397;-92
2022/07/19 08:05:51;;;;;;;2.10;0.10;;;;;;;35.80;22.61;101430.67;1826310;78;20899;-91
2022/07/19 08:08:19;;;;;;;4.85;4.10;;;;;;;35.92;22.57;101433.37;1826731;77;20859;-91
2022/07/19 08:10:46;;;;;;;1.10;0.50;;;;;;;36.01;22.47;101436.01;1826601;78;23321;-90
2022/07/19 08:13:14;;;;;;;0.33;0.30;;;;;;;36.16;22.04;101434.16;1826141;78;20919;-91
2022/07/19 08:15:41;;;;;;;0.35;0.30;;;;;;;36.35;22.06;101424.39;1825813;78;20935;-92
2022/07/19 08:18:08;;;;;;;0.78;0.78;;;;;;;36.52;21.74;101430.73;1825578;78;20896;-92
2022/07/19 08:20:35;;;;;;;1.00;0.20;;;;;;;36.54;21.25;101434.59;1825829;78;21331;-91
2022/07/19 08:23:02;;;;;;;3.20;2.10;;;;;;;36.45;21.72;101428.69;1825913;78;21139;-87
2022/07/19 08:25:29;;;;;;;4.83;3.70;;;;;;;36.43;21.10;101429.47;1825663;78;20891;-88
2022/07/19 08:27:56;;;;;;;1.10;1.10;;;;;;;36.37;20.50;101427.71;1825524;78;21345;-89
2022/07/19 08:30:23;;;;;;;1.27;0.30;;;;;;;36.04;20.10;101425.98;1825554;78;20927;-92
2022/07/19 08:32:50;;;;;;;5.15;0.55;;;;;;;35.93;20.86;101424.13;1825591;78;21368;-92
2022/07/19 08:35:17;;;;;;;1.30;0.30;;;;;;;36.07;21.06;101426.03;1826799;78;21427;-93
2022/07/19 08:37:44;;;;;;;3.45;0.20;;;;;;;36.29;21.27;101424.30;1827420;78;20911;-92
2022/07/19 08:40:11;;;;;;;3.47;0.72;;;;;;;36.32;21.19;101416.16;1828314;77;20954;-91
2022/07/19 08:42:38;;;;;;;5.97;1.80;;;;;;;36.34;21.75;101411.82;1826915;78;20872;-91
2022/07/19 08:45:08;;;;;;;0.37;0.37;;;;;;;36.39;21.48;101414.09;1825721;78;20867;-92
2022/07/19 08:47:37;;;;;;;0.30;0.23;;;;;;;36.42;21.21;101412.77;1826212;78;20871;-91
2022/07/19 08:50:07;;;;;;;0.45;0.40;;;;;;;36.62;21.05;101409.59;1825662;78;20860;-92
2022/07/19 08:52:36;;;;;;;0.20;0.20;;;;;;;36.71;20.72;101408.14;1825977;78;20896;-92
2022/07/19 08:55:04;;;;;;;0.78;0.30;;;;;;;36.69;20.81;101401.55;1825494;78;20942;-92
2022/07/19 09:00:18;;;;;;;0.78;0.50;;;;;;;36.43;21.00;101402.97;1825492;78;21796;-91
2022/07/19 09:02:54;;;;;;;1.62;0.28;;;;;;;36.35;21.18;101402.53;1830590;75;20898;-92
2022/07/19 09:05:21;;;;;;;20.02;18.15;;;;;;;36.26;21.45;101403.47;1835411;77;21017;-92
2022/07/19 09:08:13;;;;;;;7.45;5.40;;;;;;;36.29;21.29;101409.83;1835885;77;20879;-93
2022/07/19 09:13:36;;;;;;;4.28;3.72;;;;;;;36.49;20.88;101401.17;1835532;76;20827;-90
2022/07/19 09:16:05;;;;;;;6.10;5.60;;;;;;;36.52;20.54;101399.30;1835835;77;20903;-90
2022/07/19 09:18:35;;;;;;;5.72;5.25;;;;;;;36.41;20.36;101392.82;1835904;77;20899;-90
2022/07/19 09:21:06;;;;;;;3.10;0.55;;;;;;;36.15;20.96;101401.08;1836236;77;20933;-92
2022/07/19 09:23:33;;;;;;;3.08;1.10;;;;;;;36.06;20.67;101402.00;1836349;77;20890;-91
2022/07/19 09:26:04;;;;;;;6.10;5.55;;;;;;;36.07;20.13;101405.55;1836397;77;20888;-92
2022/07/19 09:28:35;;;;;;;5.30;4.17;;;;;;;35.98;19.49;101398.27;1836012;77;20911;-90
2022/07/19 09:31:04;;;;;;;0.68;0.40;;;;;;;35.78;19.73;101397.88;1836604;77;20899;-91
2022/07/19 09:33:32;;;;;;;1.90;0.25;;;;;;;35.57;20.36;101389.20;1836679;77;20898;-92
2022/07/19 09:36:02;;;;;;;0.93;0.30;;;;;;;35.43;20.70;101394.09;1837523;77;20867;-90
2022/07/19 09:38:33;;;;;;;1.35;0.10;;;;;;;35.55;20.87;101388.61;1837887;77;20875;-90
2022/07/19 09:41:14;;;;;;;0.23;0.10;;;;;;;35.81;20.79;101381.82;1837315;77;20895;-92
2022/07/19 09:44:01;;;;;;;0.30;0.28;;;;;;;36.01;20.85;101381.94;1837749;77;20997;-90
2022/07/19 09:46:35;;;;;;;1.45;0.53;;;;;;;36.15;20.80;101377.03;1836688;77;20918;-93
2022/07/19 09:49:15;;;;;;;0.10;0.10;;;;;;;36.16;20.31;101378.16;1836718;77;20926;-92
2022/07/19 09:51:49;;;;;;;2.92;0.15;;;;;;;36.14;20.62;101377.58;1836870;77;20887;-93
2022/07/19 09:54:19;;;;;;;0.10;0.10;;;;;;;36.25;20.76;101371.78;1836319;77;20871;-91
2022/07/19 09:56:48;;;;;;;1.50;0.10;;;;;;;36.39;20.60;101370.38;1836312;76;20910;-92
2022/07/19 09:59:15;;;;;;;1.02;0.23;;;;;;;36.54;20.53;101374.47;1836166;77;20879;-93
2022/07/19 10:01:48;;;;;;;1.47;0.10;;;;;;;36.65;20.45;101374.41;1836621;77;20906;-92
2022/07/19 10:04:18;;;;;;;1.70;0.20;;;;;;;36.55;20.45;101372.02;1860798;76;21082;-92
2022/07/19 10:06:47;;;;;;;0.42;0.13;;;;;;;36.58;20.31;101370.98;1862180;76;20899;-92
2022/07/19 10:09:17;;;;;;;1.75;0.20;;;;;;;36.65;20.57;101372.22;1861872;77;20930;-92
2022/07/19 10:11:45;;;;;;;0.10;0.10;;;;;;;36.62;19.90;101363.98;1862142;77;21361;-92
2022/07/19 10:14:13;;;;;;;0.68;0.13;;;;;;;36.61;20.06;101357.39;1861955;77;20982;-91
2022/07/19 10:17:08;;;;;;;0.50;0.30;;;;;;;36.62;19.79;101353.05;1862415;77;21153;-92
2022/07/19 10:19:44;;;;;;;0.88;0.75;;;;;;;36.71;19.83;101357.57;1861831;77;21370;-92
2022/07/19 10:22:15;;;;;;;1.85;0.20;;;;;;;36.81;19.44;101353.61;1860825;77;20954;-93
2022/07/19 10:25:08;;;;;;;1.37;0.40;;;;;;;36.80;19.55;101354.70;1860940;76;21472;-91
2022/07/19 10:27:39;;;;;;;0.75;0.40;;;;;;;36.66;18.86;101352.00;1861142;77;21440;-92
2022/07/19 10:30:17;;;;;;;4.17;2.60;;;;;;;36.51;19.69;101347.10;1829977;77;20956;-93
2022/07/19 10:32:45;;;;;;;1.50;0.28;;;;;;;36.41;19.03;101346.38;1861255;76;20887;-93
2022/07/19 10:35:34;;;;;;;0.10;0.10;;;;;;;36.24;19.01;101343.64;1861422;76;20903;-93
2022/07/19 10:38:06;;;;;;;0.30;0.10;;;;;;;36.16;19.21;101344.03;1860714;76;21021;-92
2022/07/19 10:40:50;;;;;;;;;;;;;;;35.96;19.24;101338.16;1864174;77;20915;-92
2022/07/19 10:43:23;;;;;;;0.35;0.20;;;;;;;35.84;19.11;101337.67;1861370;77;21156;-92
2022/07/19 10:46:02;;;;;;;2.83;0.50;;;;;;;35.75;19.34;101330.92;1861352;77;21096;-91
2022/07/19 10:48:42;;;;;;;0.23;0.10;;;;;;;35.85;19.51;101329.77;1861844;77;21455;-93
2022/07/19 10:51:34;;;;;;;1.85;0.37;;;;;;;35.80;19.37;101326.13;1861964;77;20836;-92
2022/07/19 10:54:06;;;;;;;;;;;;;;;35.57;19.68;101333.26;1856376;76;21024;-91
2022/07/19 10:56:42;;;;;;;0.10;0.10;;;;;;;35.09;20.04;101331.67;1863679;77;21209;-89
2022/07/19 10:59:11;;;;;;;0.50;0.50;;;;;;;34.48;20.48;101333.72;1863641;77;20825;-91
2022/07/19 11:01:56;;;;;;;2.17;0.13;;;;;;;34.23;21.24;101332.00;1862244;77;20918;-92
2022/07/19 11:04:28;;;;;;;0.10;0.10;;;;;;;34.19;21.68;101335.42;1852409;77;20929;-93
2022/07/19 11:07:21;;;;;;;0.95;0.20;;;;;;;34.32;21.72;101320.25;1850651;77;20874;-92
2022/07/19 11:09:58;;;;;;;0.70;0.28;;;;;;;34.33;21.62;101323.29;1850912;76;21862;-90
2022/07/19 11:12:35;;;;;;;0.13;0.10;;;;;;;34.15;21.58;101324.70;1851083;76;20870;-89
2022/07/19 11:15:06;;;;;;;0.98;0.28;;;;;;;33.79;22.47;101325.88;1851599;77;20921;-91
2022/07/19 11:17:35;;;;;;;0.80;0.20;;;;;;;33.35;22.68;101322.94;1850566;77;20918;-93
2022/07/19 11:20:12;;;;;;;1.80;0.37;;;;;;;32.89;23.62;101321.52;1850598;77;21038;-93
2022/07/19 11:22:45;;;;;;;1.20;0.20;;;;;;;32.70;23.91;101320.09;1850312;77;21186;-92
2022/07/19 11:25:14;;;;;;;1.05;0.30;;;;;;;32.61;24.62;101327.69;1850423;77;20948;-92
2022/07/19 11:27:42;;;;;;;1.50;0.20;;;;;;;32.59;24.35;101314.87;1850554;77;20996;-92
2022/07/19 11:30:13;;;;;;;3.55;0.20;;;;;;;32.55;24.19;101317.73;1850421;77;21450;-92
2022/07/19 11:32:42;;;;;;;4.33;0.30;;;;;;;32.37;24.35;101317.61;1850341;77;20850;-92
2022/07/19 11:35:12;;;;;;;0.30;0.20;;;;;;;32.20;24.46;101314.08;1850700;77;21280;-91
2022/07/19 11:37:40;;;;;;;0.47;0.20;;;;;;;32.06;24.61;101305.72;1850949;77;20889;-92
2022/07/19 11:40:09;;;;;;;1.60;0.23;;;;;;;31.90;24.96;101307.53;1850963;77;21272;-88
2022/07/19 11:42:42;;;;;;;0.93;0.20;;;;;;;31.69;25.75;101307.34;1851044;76;20889;-91